Time;durP1;ratioP1;P1;durP2;ratioP2;P2;SDS_P1;SDS_P2;PMS_P1;PMS_P2;Temp;Humidity;BMP_temperature;BMP_pressure;BME280_temperature;BME280_humidity;BME280_pressure;Samples;Min_cycle;Max_cycle;Signal;HPM_P1;HPM_P2
2024/04/17 00:01:20;;;;;;;3.05;1.48;;;8.40;77.10;;;;;;5482286;26;19999;-68
2024/04/17 00:03:46;;;;;;;2.80;0.45;;;8.40;77.10;;;;;;5486128;26;20419;-67
2024/04/17 00:06:13;;;;;;;2.95;0.65;;;8.40;77.10;;;;;;5486409;26;19998;-67
2024/04/17 00:08:39;;;;;;;2.08;1.33;;;8.40;77.10;;;;;;5485251;26;20037;-68
2024/04/17 00:11:05;;;;;;;2.42;0.57;;;8.30;77.10;;;;;;5484356;26;20330;-68
2024/04/17 00:13:31;;;;;;;2.10;0.60;;;8.30;77.10;;;;;;5486043;26;20002;-67
2024/04/17 00:16:01;;;;;;;6.15;0.80;;;8.20;77.20;;;;;;5491430;26;20006;-64
2024/04/17 00:18:28;;;;;;;2.50;0.63;;;8.20;77.20;;;;;;5483922;26;20006;-63
2024/04/17 00:20:54;;;;;;;3.88;0.90;;;8.20;77.20;;;;;;5484665;26;20002;-62
2024/04/17 00:23:20;;;;;;;1.15;1.05;;;8.20;77.10;;;;;;5485033;26;20507;-67
2024/04/17 00:25:46;;;;;;;1.75;0.90;;;8.10;76.90;;;;;;5485867;26;20006;-67
2024/04/17 00:28:12;;;;;;;0.55;0.50;;;8.10;76.90;;;;;;5486775;26;20020;-67
2024/04/17 00:30:38;;;;;;;0.80;0.50;;;8.00;76.90;;;;;;5471832;26;20001;-67
2024/04/17 00:33:04;;;;;;;0.65;0.65;;;8.00;76.90;;;;;;5485668;26;20441;-67
2024/04/17 00:35:29;;;;;;;3.13;0.30;;;7.90;76.70;;;;;;5477839;26;20022;-67
2024/04/17 00:37:56;;;;;;;3.00;0.40;;;7.80;76.70;;;;;;5481194;26;20014;-67
2024/04/17 00:40:22;;;;;;;4.18;0.57;;;7.80;76.80;;;;;;5484948;26;20038;-63
2024/04/17 00:42:49;;;;;;;4.82;0.75;;;7.80;76.80;;;;;;5484335;26;20006;-63
2024/04/17 00:45:15;;;;;;;3.50;0.93;;;7.80;76.80;;;;;;5475334;26;20043;-63
2024/04/17 00:47:42;;;;;;;1.30;0.70;;;7.70;76.70;;;;;;5472381;26;19998;-67
2024/04/17 00:50:11;;;;;;;1.42;0.70;;;7.70;76.70;;;;;;5481304;26;20006;-67
2024/04/17 00:52:38;;;;;;;2.83;0.80;;;7.60;76.60;;;;;;5473287;26;20077;-67
2024/04/17 00:55:06;;;;;;;2.25;0.50;;;7.60;76.60;;;;;;5472016;26;19998;-67
2024/04/17 00:57:35;;;;;;;1.33;0.90;;;7.60;76.60;;;;;;5473851;26;20017;-67
2024/04/17 01:00:02;;;;;;;1.75;0.70;;;7.50;76.60;;;;;;5483925;26;20002;-67
2024/04/17 01:02:28;;;;;;;2.28;1.10;;;7.50;76.60;;;;;;5453782;26;20078;-64
2024/04/17 01:04:54;;;;;;;1.88;0.47;;;7.40;76.70;;;;;;5483406;26;20018;-63
2024/04/17 01:07:20;;;;;;;1.42;0.75;;;7.40;76.70;;;;;;5485609;26;20006;-63
2024/04/17 01:09:46;;;;;;;2.65;0.43;;;7.40;76.60;;;;;;5484777;26;20009;-63
2024/04/17 01:12:12;;;;;;;0.40;0.40;;;7.40;76.60;;;;;;5438511;26;20441;-63
2024/04/17 01:14:37;;;;;;;0.93;0.60;;;7.30;76.50;;;;;;5477398;26;20065;-63
2024/04/17 01:17:03;;;;;;;3.88;0.80;;;7.30;76.60;;;;;;5483557;26;19994;-63
2024/04/17 01:19:30;;;;;;;0.60;0.30;;;7.30;76.70;;;;;;5453509;26;20002;-67
2024/04/17 01:21:56;;;;;;;1.88;0.47;;;7.30;76.60;;;;;;5452533;26;20009;-67
2024/04/17 01:24:22;;;;;;;3.15;0.60;;;7.20;76.50;;;;;;5462655;26;20003;-67
2024/04/17 01:26:48;;;;;;;0.80;0.47;;;7.20;76.50;;;;;;5478943;26;20002;-63
2024/04/17 01:29:14;;;;;;;0.52;0.32;;;7.20;76.50;;;;;;5452948;26;20010;-63
2024/04/17 01:31:40;;;;;;;2.13;1.50;;;7.20;76.50;;;;;;5463874;26;19994;-62
2024/04/17 01:34:05;;;;;;;2.60;1.35;;;7.20;76.50;;;;;;5478707;26;20002;-62
2024/04/17 01:36:33;;;;;;;1.58;0.63;;;7.10;76.60;;;;;;5484941;26;20020;-62
2024/04/17 01:38:59;;;;;;;1.60;0.98;;;7.10;76.60;;;;;;5484634;26;20039;-62
2024/04/17 01:41:25;;;;;;;1.95;0.65;;;7.10;76.80;;;;;;5485340;26;20344;-62
2024/04/17 01:43:51;;;;;;;3.72;0.47;;;7.10;76.80;;;;;;5484838;26;20013;-62
2024/04/17 01:46:17;;;;;;;0.85;0.70;;;7.00;76.70;;;;;;5485470;26;20474;-67
2024/04/17 01:48:43;;;;;;;1.70;1.23;;;7.00;77.30;;;;;;5483123;26;19998;-67
2024/04/17 01:51:09;;;;;;;5.25;1.25;;;7.00;76.70;;;;;;5482039;26;20002;-63
2024/04/17 01:53:35;;;;;;;1.27;0.80;;;7.00;76.70;;;;;;5483150;26;19998;-63
2024/04/17 01:56:01;;;;;;;1.55;1.00;;;7.00;76.80;;;;;;5484135;26;19998;-62
2024/04/17 01:58:26;;;;;;;1.77;0.80;;;7.00;76.80;;;;;;5469511;26;19999;-63
2024/04/17 02:00:53;;;;;;;0.95;0.57;;;7.00;76.80;;;;;;5478585;26;20010;-63
2024/04/17 02:03:19;;;;;;;2.30;0.80;;;7.00;76.80;;;;;;5483846;26;20001;-62
2024/04/17 02:05:45;;;;;;;0.55;0.47;;;7.00;76.80;;;;;;5479832;26;20017;-62
2024/04/17 02:08:11;;;;;;;2.05;0.50;;;7.00;77.40;;;;;;5472034;26;20370;-67
2024/04/17 02:10:36;;;;;;;0.93;0.80;;;7.10;77.00;;;;;;5484959;26;20010;-67
2024/04/17 02:13:02;;;;;;;0.50;0.50;;;7.00;77.00;;;;;;5482325;26;19998;-67
2024/04/17 02:15:31;;;;;;;1.25;0.95;;;7.00;77.10;;;;;;5484771;26;20012;-67
2024/04/17 02:17:57;;;;;;;3.72;1.20;;;7.00;77.20;;;;;;5470415;26;19998;-67
2024/04/17 02:20:23;;;;;;;1.80;0.80;;;7.00;77.40;;;;;;5471948;26;20082;-67
2024/04/17 02:22:50;;;;;;;2.20;1.33;;;7.10;77.50;;;;;;5483448;26;20358;-67
2024/04/17 02:25:16;;;;;;;0.68;0.68;;;7.10;77.60;;;;;;5484373;26;20009;-67
2024/04/17 02:27:42;;;;;;;2.58;0.60;;;7.10;77.70;;;;;;5476533;26;20006;-67
2024/04/17 02:30:09;;;;;;;0.88;0.60;;;7.10;77.70;;;;;;5464718;26;20039;-67
2024/04/17 02:32:35;;;;;;;1.60;0.60;;;7.10;77.90;;;;;;5477106;26;20335;-67
2024/04/17 02:35:01;;;;;;;2.88;0.93;;;7.20;78.00;;;;;;5467746;26;20092;-67
2024/04/17 02:37:27;;;;;;;0.45;0.45;;;7.20;78.10;;;;;;5461312;26;20006;-67
2024/04/17 02:39:53;;;;;;;9.70;1.55;;;7.30;78.20;;;;;;5472716;26;20495;-67
2024/04/17 02:42:19;;;;;;;1.60;0.68;;;7.40;78.70;;;;;;5484807;26;20014;-67
2024/04/17 02:44:46;;;;;;;0.65;0.60;;;7.40;79.00;;;;;;5483858;26;20013;-67
2024/04/17 02:47:12;;;;;;;2.28;0.88;;;7.50;79.30;;;;;;5479260;26;20010;-62
2024/04/17 02:49:38;;;;;;;0.68;0.38;;;7.50;79.50;;;;;;5473831;26;20334;-63
2024/04/17 02:52:04;;;;;;;1.42;0.50;;;7.60;79.60;;;;;;5476398;26;20113;-67
2024/04/17 02:54:30;;;;;;;1.23;0.60;;;7.60;79.70;;;;;;5450561;26;20056;-67
2024/04/17 02:56:56;;;;;;;1.63;1.48;;;7.60;80.10;;;;;;5449476;26;20464;-68
2024/04/17 02:59:22;;;;;;;3.47;0.93;;;7.70;80.10;;;;;;5472395;26;20035;-67
2024/04/17 03:01:48;;;;;;;1.90;0.60;;;7.70;80.10;;;;;;5467151;26;19998;-67
2024/04/17 03:04:14;;;;;;;0.95;0.70;;;7.80;80.10;;;;;;5470274;26;20519;-67
2024/04/17 03:06:40;;;;;;;1.30;1.10;;;7.80;80.10;;;;;;5514031;26;20002;-67
2024/04/17 03:09:06;;;;;;;3.70;1.35;;;7.80;80.20;;;;;;5473318;26;20544;-67
2024/04/17 03:11:32;;;;;;;4.28;1.00;;;7.80;80.10;;;;;;5465730;26;19999;-67
2024/04/17 03:13:58;;;;;;;3.20;0.75;;;7.80;80.20;;;;;;5461804;26;20003;-63
2024/04/17 03:16:24;;;;;;;1.65;0.93;;;7.90;80.40;;;;;;5513672;26;20002;-63
2024/04/17 03:18:50;;;;;;;1.55;0.80;;;7.90;80.50;;;;;;5513184;26;20074;-67
2024/04/17 03:21:16;;;;;;;1.02;0.70;;;7.90;80.30;;;;;;5467195;26;20003;-67
2024/04/17 03:23:42;;;;;;;2.35;0.50;;;7.90;80.40;;;;;;5464674;26;20356;-63
2024/04/17 03:26:08;;;;;;;4.75;1.08;;;7.90;80.40;;;;;;5455167;26;19998;-67
2024/04/17 03:28:33;;;;;;;4.28;0.73;;;8.00;80.50;;;;;;5486203;26;19998;-67
2024/04/17 03:31:00;;;;;;;1.25;0.90;;;8.00;80.50;;;;;;5480246;26;19998;-67
2024/04/17 03:33:26;;;;;;;4.03;0.88;;;8.00;80.40;;;;;;5486323;26;20002;-68
2024/04/17 03:35:57;;;;;;;0.70;0.55;;;8.10;80.50;;;;;;5478248;26;20337;-67
2024/04/17 03:38:23;;;;;;;1.95;1.02;;;8.10;80.50;;;;;;5468029;26;20008;-67
2024/04/17 03:40:49;;;;;;;1.75;0.52;;;8.10;80.50;;;;;;5471767;26;20043;-62
2024/04/17 03:43:15;;;;;;;2.33;0.60;;;8.10;80.70;;;;;;5480197;26;19998;-63
2024/04/17 03:45:41;;;;;;;1.48;0.88;;;8.10;80.70;;;;;;5472508;26;20013;-63
2024/04/17 03:48:07;;;;;;;0.93;0.77;;;8.10;80.70;;;;;;5473340;26;19998;-62
2024/04/17 03:50:33;;;;;;;1.13;0.93;;;8.10;80.80;;;;;;5468990;26;20005;-67
2024/04/17 03:52:59;;;;;;;0.80;0.65;;;8.10;81.00;;;;;;5464953;26;19998;-64
2024/04/17 03:55:25;;;;;;;2.13;1.50;;;8.00;81.10;;;;;;5452419;26;20104;-63
2024/04/17 03:57:51;;;;;;;2.05;0.60;;;8.00;81.10;;;;;;5474296;26;20017;-63
2024/04/17 04:00:17;;;;;;;1.25;0.60;;;8.00;81.10;;;;;;5489769;26;20074;-62
2024/04/17 04:02:43;;;;;;;0.68;0.50;;;8.10;81.20;;;;;;5485208;26;20354;-63
2024/04/17 04:05:09;;;;;;;0.38;0.38;;;8.20;81.20;;;;;;5471153;26;19998;-67
2024/04/17 04:07:36;;;;;;;1.10;0.60;;;8.20;81.00;;;;;;5477904;26;20007;-68
2024/04/17 04:10:03;;;;;;;0.60;0.40;;;8.30;81.10;;;;;;5475506;26;20339;-68
2024/04/17 04:12:28;;;;;;;3.60;1.05;;;8.30;81.10;;;;;;5476148;26;20344;-68
2024/04/17 04:14:54;;;;;;;1.77;0.40;;;8.30;81.20;;;;;;5464665;26;19998;-68
2024/04/17 04:17:20;;;;;;;2.72;0.45;;;8.30;81.30;;;;;;5475836;26;20002;-69
2024/04/17 04:19:46;;;;;;;0.52;0.50;;;8.20;81.50;;;;;;5481379;26;20009;-68
2024/04/17 04:22:12;;;;;;;1.55;0.40;;;8.20;81.60;;;;;;5468045;26;20006;-67
2024/04/17 04:24:39;;;;;;;1.65;0.40;;;8.20;81.70;;;;;;5467740;26;20318;-67
2024/04/17 04:27:05;;;;;;;0.95;0.80;;;8.30;81.50;;;;;;5473312;26;20031;-67
2024/04/17 04:29:31;;;;;;;2.20;0.68;;;8.30;81.30;;;;;;5474342;26;20471;-67
2024/04/17 04:31:57;;;;;;;2.05;0.95;;;8.40;81.30;;;;;;5470785;26;20353;-67
2024/04/17 04:34:23;;;;;;;2.22;1.13;;;8.40;81.40;;;;;;5471117;26;20017;-67
2024/04/17 04:36:49;;;;;;;1.52;1.02;;;8.40;81.40;;;;;;5465299;26;20017;-68
2024/04/17 04:39:15;;;;;;;1.95;0.35;;;8.40;81.50;;;;;;5480498;26;19998;-67
2024/04/17 04:41:41;;;;;;;1.27;0.90;;;8.40;81.40;;;;;;5482867;26;19998;-62
2024/04/17 04:44:07;;;;;;;2.22;0.50;;;8.40;81.40;;;;;;5475227;26;20002;-63
2024/04/17 04:46:33;;;;;;;0.52;0.43;;;8.50;81.40;;;;;;5474074;26;20075;-63
2024/04/17 04:48:59;;;;;;;0.70;0.40;;;8.50;81.30;;;;;;5485382;26;20002;-62
2024/04/17 04:51:25;;;;;;;1.48;0.60;;;8.60;81.40;;;;;;5445156;26;20010;-63
2024/04/17 04:53:51;;;;;;;1.85;0.50;;;8.60;81.30;;;;;;5480811;26;20030;-63
2024/04/17 04:56:17;;;;;;;1.17;0.63;;;8.50;81.30;;;;;;5479468;26;20087;-63
2024/04/17 04:58:44;;;;;;;1.10;0.52;;;8.50;81.30;;;;;;5478484;26;20074;-63
2024/04/17 05:01:10;;;;;;;2.22;0.82;;;8.50;81.40;;;;;;5473041;26;19999;-63
2024/04/17 05:03:36;;;;;;;0.68;0.63;;;8.40;81.30;;;;;;5483898;26;20005;-65
2024/04/17 05:06:01;;;;;;;2.40;0.38;;;8.40;81.50;;;;;;5474980;26;20006;-65
2024/04/17 05:08:27;;;;;;;1.25;0.60;;;8.40;81.40;;;;;;5446288;26;20011;-64
2024/04/17 05:10:53;;;;;;;0.20;0.20;;;8.30;81.40;;;;;;5476804;26;19998;-64
2024/04/17 05:13:18;;;;;;;0.90;0.50;;;8.40;81.50;;;;;;5475088;26;20006;-64
2024/04/17 05:15:44;;;;;;;1.02;0.40;;;8.30;81.50;;;;;;5485753;26;19998;-63
2024/04/17 05:18:10;;;;;;;0.22;0.20;;;8.30;81.50;;;;;;5482329;26;19998;-64
2024/04/17 05:20:36;;;;;;;2.97;0.60;;;8.30;81.50;;;;;;5479906;26;20013;-64
2024/04/17 05:23:01;;;;;;;0.20;0.20;;;8.30;81.50;;;;;;5466184;26;20002;-64
2024/04/17 05:25:27;;;;;;;0.60;0.55;;;8.40;81.50;;;;;;5479622;26;20353;-64
2024/04/17 05:27:53;;;;;;;1.50;0.32;;;8.30;81.50;;;;;;5479994;26;20096;-64
2024/04/17 05:30:18;;;;;;;1.88;0.40;;;8.40;81.60;;;;;;5485128;26;20002;-64
2024/04/17 05:32:47;;;;;;;0.85;0.68;;;8.40;81.60;;;;;;5483101;26;20002;-64
2024/04/17 05:35:13;;;;;;;0.88;0.25;;;8.40;81.60;;;;;;5456916;26;20026;-67
2024/04/17 05:37:38;;;;;;;0.63;0.30;;;8.40;81.50;;;;;;5481249;26;20016;-68
2024/04/17 05:40:05;;;;;;;0.50;0.30;;;8.40;81.60;;;;;;5474655;26;19998;-63
2024/04/17 05:42:31;;;;;;;0.47;0.17;;;8.40;81.80;;;;;;5468776;26;20034;-63
2024/04/17 05:44:57;;;;;;;0.85;0.30;;;8.40;81.80;;;;;;5468341;26;20009;-63
2024/04/17 05:47:22;;;;;;;0.38;0.38;;;8.30;81.80;;;;;;5481763;26;20356;-63
2024/04/17 05:49:48;;;;;;;0.20;0.20;;;8.30;81.80;;;;;;5468114;26;19999;-65
2024/04/17 05:52:14;;;;;;;0.20;0.10;;;8.30;81.80;;;;;;5480165;26;20030;-63
2024/04/17 05:54:39;;;;;;;0.40;0.30;;;8.30;81.70;;;;;;5478724;26;19998;-64
2024/04/17 05:57:05;;;;;;;0.32;0.20;;;8.40;81.80;;;;;;5473937;26;20555;-63
2024/04/17 05:59:31;;;;;;;2.03;0.60;;;8.30;81.80;;;;;;5471182;26;19999;-63
2024/04/17 06:01:59;;;;;;;0.10;0.10;;;8.40;81.80;;;;;;5444805;26;20025;-63
2024/04/17 06:04:25;;;;;;;1.65;0.45;;;8.40;81.80;;;;;;5482970;26;20047;-63
2024/04/17 06:06:50;;;;;;;0.60;0.57;;;8.50;81.70;;;;;;5483761;26;20009;-63
2024/04/17 06:09:16;;;;;;;0.38;0.38;;;8.60;81.60;;;;;;5478264;26;19999;-69
2024/04/17 06:11:42;;;;;;;0.25;0.20;;;8.60;81.50;;;;;;5484088;26;20349;-69
2024/04/17 06:14:08;;;;;;;0.43;0.15;;;8.60;81.30;;;;;;5468226;26;20002;-69
2024/04/17 06:16:33;;;;;;;0.30;0.20;;;8.70;81.20;;;;;;5468795;26;20329;-69
2024/04/17 06:18:59;;;;;;;0.50;0.35;;;8.70;81.20;;;;;;5469393;26;20028;-68
2024/04/17 06:21:26;;;;;;;0.20;0.20;;;8.70;81.10;;;;;;5482296;26;20009;-69
2024/04/17 06:23:52;;;;;;;1.50;0.20;;;8.80;81.10;;;;;;5479448;26;20066;-70
2024/04/17 06:26:17;;;;;;;0.22;0.20;;;8.80;81.00;;;;;;5474455;26;20508;-68
2024/04/17 06:28:43;;;;;;;0.32;0.32;;;8.80;80.90;;;;;;5475610;26;20001;-70
2024/04/17 06:31:09;;;;;;;0.10;0.10;;;8.90;81.00;;;;;;5477862;26;20018;-64
2024/04/17 06:33:34;;;;;;;0.65;0.20;;;8.90;80.90;;;;;;5468965;26;20014;-64
2024/04/17 06:36:00;;;;;;;0.20;0.10;;;8.90;80.90;;;;;;5482237;26;20009;-63
2024/04/17 06:38:25;;;;;;;0.15;0.15;;;8.80;80.80;;;;;;5475775;26;20006;-63
2024/04/17 06:40:52;;;;;;;0.47;0.47;;;8.80;81.00;;;;;;5481931;26;20046;-63
2024/04/17 06:43:17;;;;;;;0.30;0.10;;;8.80;81.00;;;;;;5476779;26;20066;-69
2024/04/17 06:45:45;;;;;;;0.75;0.55;;;8.80;81.10;;;;;;5482451;26;20432;-66
2024/04/17 06:48:11;;;;;;;2.00;0.63;;;8.80;81.10;;;;;;5470438;26;20002;-66
2024/04/17 06:50:37;;;;;;;0.70;0.20;;;8.80;81.00;;;;;;5477075;26;20476;-67
2024/04/17 06:53:03;;;;;;;1.58;0.30;;;8.80;80.90;;;;;;5469540;26;20520;-64
2024/04/17 06:55:29;;;;;;;0.15;0.13;;;8.80;80.90;;;;;;5474687;26;20009;-63
2024/04/17 06:57:54;;;;;;;0.30;0.30;;;8.80;81.00;;;;;;5468616;26;20003;-63
2024/04/17 07:00:20;;;;;;;0.40;0.40;;;8.90;80.90;;;;;;5463389;26;20002;-62
2024/04/17 07:02:46;;;;;;;0.43;0.30;;;8.80;80.80;;;;;;5477266;26;20458;-64
2024/04/17 07:05:12;;;;;;;0.20;0.20;;;8.90;80.90;;;;;;5482217;26;20451;-63
2024/04/17 07:07:38;;;;;;;1.25;0.65;;;8.90;80.90;;;;;;5468918;26;20024;-62
2024/04/17 07:10:04;;;;;;;0.32;0.30;;;9.00;80.90;;;;;;5494141;26;20005;-69
2024/04/17 07:12:30;;;;;;;0.43;0.30;;;9.10;80.90;;;;;;5493778;26;19999;-70
2024/04/17 07:14:55;;;;;;;0.30;0.20;;;9.20;81.00;;;;;;5500318;25;20329;-69
2024/04/17 07:17:21;;;;;;;4.18;0.30;;;9.20;80.90;;;;;;5501559;26;20002;-68
2024/04/17 07:19:47;;;;;;;0.65;0.65;;;9.30;80.90;;;;;;5469506;26;20020;-68
2024/04/17 07:22:12;;;;;;;0.10;0.10;;;9.40;81.00;;;;;;5497417;26;20013;-68
2024/04/17 07:24:38;;;;;;;0.10;0.10;;;9.50;80.90;;;;;;5468661;26;20002;-68
2024/04/17 07:27:04;;;;;;;0.40;0.30;;;9.60;80.80;;;;;;5464135;26;20002;-68
2024/04/17 07:29:33;;;;;;;0.10;0.10;;;9.80;80.40;;;;;;5474635;26;20010;-69
2024/04/17 07:31:59;;;;;;;0.30;0.30;;;9.90;80.10;;;;;;5463841;26;20009;-69
2024/04/17 07:34:24;;;;;;;0.65;0.50;;;9.90;80.00;;;;;;5465067;26;20553;-64
2024/04/17 07:36:50;;;;;;;0.30;0.30;;;10.00;80.00;;;;;;5469900;26;19998;-68
2024/04/17 07:39:16;;;;;;;0.40;0.30;;;10.00;80.00;;;;;;5491747;25;20465;-69
2024/04/17 07:41:41;;;;;;;3.20;1.20;;;10.00;80.00;;;;;;5478106;26;20026;-64
2024/04/17 07:44:09;;;;;;;0.40;0.30;;;10.00;80.10;;;;;;5458505;26;21268;-68
2024/04/17 07:46:34;;;;;;;0.13;0.10;;;10.00;80.10;;;;;;5475639;26;20018;-63
2024/04/17 07:49:00;;;;;;;0.75;0.45;;;10.00;80.10;;;;;;5476101;26;20009;-64
2024/04/17 07:51:26;;;;;;;4.50;0.60;;;10.10;80.20;;;;;;5470456;26;19998;-64
2024/04/17 07:53:51;;;;;;;0.73;0.45;;;10.10;80.00;;;;;;5479904;26;20082;-63
2024/04/17 07:56:17;;;;;;;3.10;0.30;;;10.20;80.00;;;;;;5478823;26;20447;-64
2024/04/17 07:58:43;;;;;;;0.60;0.60;;;10.30;79.90;;;;;;5479270;26;20433;-64
2024/04/17 08:01:10;;;;;;;2.72;0.32;;;10.40;79.60;;;;;;5478182;26;21191;-63
2024/04/17 08:03:36;;;;;;;0.82;0.38;;;10.50;79.50;;;;;;5488433;26;19998;-63
2024/04/17 08:06:02;;;;;;;0.30;0.30;;;10.60;79.40;;;;;;5495485;26;20013;-63
2024/04/17 08:08:27;;;;;;;1.17;0.38;;;10.80;79.30;;;;;;5488710;26;20099;-64
2024/04/17 08:10:54;;;;;;;3.72;0.43;;;11.00;79.10;;;;;;5483176;26;20020;-63
2024/04/17 08:13:19;;;;;;;0.32;0.32;;;11.20;78.80;;;;;;5477605;26;20034;-63
2024/04/17 08:15:52;;;;;;;0.73;0.52;;;11.30;78.60;;;;;;5478446;26;20009;-63
2024/04/17 08:18:18;;;;;;;0.45;0.45;;;11.40;78.50;;;;;;5487939;26;20012;-63
2024/04/17 08:20:43;;;;;;;1.80;0.40;;;11.40;77.80;;;;;;5471922;26;20005;-69
2024/04/17 08:23:10;;;;;;;1.70;0.90;;;11.40;77.60;;;;;;5475547;26;20026;-69
2024/04/17 08:25:35;;;;;;;1.95;0.95;;;11.40;77.80;;;;;;5486469;26;20006;-68
2024/04/17 08:28:01;;;;;;;1.60;0.47;;;11.40;77.90;;;;;;5498397;26;20073;-68
2024/04/17 08:30:27;;;;;;;0.40;0.40;;;11.50;78.00;;;;;;5480698;26;20079;-68
2024/04/17 08:32:53;;;;;;;2.03;1.23;;;11.60;77.70;;;;;;5483166;26;19997;-69
2024/04/17 08:35:19;;;;;;;0.90;0.40;;;11.70;77.50;;;;;;5495150;26;20008;-63
2024/04/17 08:37:45;;;;;;;6.93;1.30;;;11.80;77.50;;;;;;5478830;26;20446;-63
2024/04/17 08:40:12;;;;;;;1.27;0.30;;;11.80;76.90;;;;;;5485018;26;20013;-63
2024/04/17 08:42:41;;;;;;;2.55;0.95;;;11.90;76.30;;;;;;5474873;26;20006;-63
2024/04/17 08:45:11;;;;;;;2.15;1.05;;;12.10;76.40;;;;;;5471320;26;20013;-63
2024/04/17 08:47:40;;;;;;;0.75;0.32;;;12.20;76.10;;;;;;5480762;26;19998;-63
2024/04/17 08:50:06;;;;;;;1.80;0.43;;;12.20;75.00;;;;;;5467348;26;20516;-63
2024/04/17 08:52:34;;;;;;;3.97;1.15;;;12.10;74.90;;;;;;5491303;26;20016;-64
2024/04/17 08:54:59;;;;;;;0.38;0.38;;;12.00;74.50;;;;;;5469528;26;19997;-64
2024/04/17 08:57:26;;;;;;;0.82;0.60;;;11.90;74.90;;;;;;5439697;26;20009;-63
2024/04/17 08:59:52;;;;;;;0.30;0.30;;;11.70;74.70;;;;;;5498906;26;20009;-63
2024/04/17 09:02:18;;;;;;;0.52;0.20;;;11.50;74.90;;;;;;5489925;25;20559;-63
2024/04/17 09:04:46;;;;;;;1.55;0.15;;;11.30;74.50;;;;;;5466534;26;19998;-64
2024/04/17 09:07:12;;;;;;;2.05;0.28;;;11.20;74.80;;;;;;5474435;26;20005;-63
2024/04/17 09:09:39;;;;;;;0.52;0.52;;;11.10;75.20;;;;;;5486049;25;20010;-63
2024/04/17 09:12:06;;;;;;;0.63;0.20;;;11.00;75.40;;;;;;5477571;26;20066;-67
2024/04/17 09:14:32;;;;;;;0.40;0.40;;;10.80;75.60;;;;;;5482650;26;20002;-68
2024/04/17 09:16:58;;;;;;;0.73;0.28;;;10.80;75.80;;;;;;5443246;26;20398;-67
2024/04/17 09:19:24;;;;;;;0.20;0.20;;;10.80;76.00;;;;;;5488443;26;20013;-67
2024/04/17 09:21:51;;;;;;;0.55;0.30;;;10.80;76.60;;;;;;5486729;26;20318;-68
2024/04/17 09:24:17;;;;;;;0.88;0.40;;;10.80;76.10;;;;;;5482023;26;19997;-67
2024/04/17 09:26:43;;;;;;;0.32;0.20;;;10.90;76.20;;;;;;5474048;26;20025;-67
2024/04/17 09:29:09;;;;;;;0.65;0.30;;;11.10;76.20;;;;;;5495515;26;20047;-68
2024/04/17 09:31:35;;;;;;;0.75;0.52;;;11.50;75.90;;;;;;5496343;26;20546;-68
2024/04/17 09:34:01;;;;;;;0.52;0.20;;;11.90;75.20;;;;;;5462104;26;20489;-68
2024/04/17 09:36:27;;;;;;;1.33;0.60;;;12.30;74.60;;;;;;5493830;26;20018;-68
2024/04/17 09:38:53;;;;;;;0.28;0.28;;;12.40;73.60;;;;;;5471594;26;20077;-68
2024/04/17 09:41:20;;;;;;;1.80;0.20;;;12.40;73.60;;;;;;5484653;26;19993;-68
2024/04/17 09:43:49;;;;;;;0.55;0.15;;;12.40;73.70;;;;;;5499145;25;20008;-67
2024/04/17 09:46:15;;;;;;;0.80;0.43;;;12.40;73.60;;;;;;5465418;26;20006;-67
2024/04/17 09:48:42;;;;;;;0.30;0.20;;;12.30;73.70;;;;;;5481702;26;20478;-67
2024/04/17 09:51:18;;;;;;;0.20;0.20;;;12.00;73.70;;;;;;5492864;26;20009;-68
2024/04/17 09:53:54;;;;;;;0.20;0.20;;;11.90;73.90;;;;;;5462524;26;20002;-68
2024/04/17 09:56:21;;;;;;;0.20;0.20;;;11.80;73.90;;;;;;5482783;26;19998;-67
2024/04/17 09:58:48;;;;;;;0.40;0.30;;;11.70;74.10;;;;;;5466023;26;19990;-68
2024/04/17 10:01:15;;;;;;;0.20;0.20;;;11.70;74.20;;;;;;5481040;26;19998;-67
2024/04/17 10:03:42;;;;;;;0.73;0.20;;;11.80;73.90;;;;;;5482602;26;20008;-63
2024/04/17 10:06:08;;;;;;;0.40;0.20;;;11.90;73.80;;;;;;5481643;26;20002;-67
2024/04/17 10:08:35;;;;;;;0.68;0.68;;;12.10;73.80;;;;;;5478244;26;20009;-68
2024/04/17 10:11:05;;;;;;;1.88;0.20;;;12.40;73.60;;;;;;5482354;26;20006;-64
2024/04/17 10:13:31;;;;;;;0.30;0.30;;;12.60;72.50;;;;;;5472876;26;20001;-63
2024/04/17 10:15:57;;;;;;;2.15;0.40;;;12.50;70.70;;;;;;5481495;26;20002;-64
2024/04/17 10:18:24;;;;;;;1.02;0.25;;;12.30;69.70;;;;;;5477113;26;20031;-64
2024/04/17 10:20:52;;;;;;;1.55;0.90;;;12.00;69.50;;;;;;5477718;26;20074;-63
2024/04/17 10:23:18;;;;;;;0.30;0.30;;;11.80;70.30;;;;;;5467831;26;19994;-64
2024/04/17 10:25:47;;;;;;;2.08;0.30;;;11.60;71.00;;;;;;5479485;26;20504;-64
2024/04/17 10:28:14;;;;;;;0.28;0.28;;;11.40;71.00;;;;;;5478066;26;20002;-64
2024/04/17 10:30:40;;;;;;;0.50;0.40;;;11.20;71.00;;;;;;5484489;26;20468;-64
2024/04/17 10:33:26;;;;;;;1.23;0.68;;;10.90;71.40;;;;;;5480044;26;20080;-64
2024/04/17 10:35:52;;;;;;;0.10;0.10;;;10.60;71.90;;;;;;5477516;26;20006;-64
2024/04/17 10:38:18;;;;;;;0.20;0.20;;;10.40;72.60;;;;;;5471796;26;20003;-68
2024/04/17 10:40:47;;;;;;;2.10;0.43;;;10.40;73.20;;;;;;5477292;26;20335;-68
2024/04/17 10:43:13;;;;;;;0.75;0.47;;;10.40;73.60;;;;;;5473319;26;20010;-68
2024/04/17 10:45:46;;;;;;;0.20;0.20;;;10.40;73.70;;;;;;5481368;26;20002;-68
2024/04/17 10:48:18;;;;;;;0.25;0.20;;;10.50;73.80;;;;;;5470456;26;20447;-69
2024/04/17 10:50:44;;;;;;;0.20;0.20;;;10.40;73.30;;;;;;5441470;26;20003;-69
2024/04/17 10:53:11;;;;;;;0.17;0.17;;;10.50;73.60;;;;;;5482190;26;20054;-68
2024/04/17 10:55:36;;;;;;;0.20;0.20;;;10.60;73.50;;;;;;5491901;26;20447;-69
2024/04/17 10:58:04;;;;;;;4.40;0.35;;;10.70;73.30;;;;;;5484048;26;20008;-68
2024/04/17 11:00:29;;;;;;;0.47;0.20;;;10.90;73.10;;;;;;5482636;26;20010;-68
2024/04/17 11:02:55;;;;;;;1.48;0.25;;;11.00;72.90;;;;;;5478883;26;20620;-64
2024/04/17 11:05:24;;;;;;;0.35;0.28;;;11.20;72.70;;;;;;5465638;26;20013;-63
2024/04/17 11:07:53;;;;;;;1.58;0.30;;;11.40;72.40;;;;;;5468939;26;20314;-63
2024/04/17 11:10:20;;;;;;;0.47;0.40;;;11.60;71.90;;;;;;5479152;26;20002;-63
2024/04/17 11:12:45;;;;;;;0.10;0.10;;;11.70;70.70;;;;;;5483764;26;20029;-64
2024/04/17 11:15:11;;;;;;;0.98;0.17;;;12.00;70.80;;;;;;5482274;26;20007;-63
2024/04/17 11:17:37;;;;;;;0.20;0.20;;;12.10;70.40;;;;;;5467178;26;20017;-64
2024/04/17 11:20:05;;;;;;;2.10;0.20;;;12.40;70.40;;;;;;5469364;26;20074;-64
2024/04/17 11:22:34;;;;;;;0.10;0.10;;;12.50;69.50;;;;;;5476236;26;20529;-64
2024/04/17 11:25:01;;;;;;;0.10;0.10;;;12.70;69.60;;;;;;5483052;26;20002;-63
2024/04/17 11:27:27;;;;;;;0.10;0.10;;;12.90;69.20;;;;;;5483548;26;20009;-64
2024/04/17 11:29:52;;;;;;;0.22;0.20;;;13.20;68.30;;;;;;5481457;26;20481;-63
2024/04/17 11:32:18;;;;;;;3.65;0.55;;;13.50;68.90;;;;;;5472170;26;19999;-69
2024/04/17 11:34:44;;;;;;;0.30;0.30;;;13.70;67.90;;;;;;5479276;26;20119;-68
2024/04/17 11:37:09;;;;;;;0.32;0.30;;;14.10;68.00;;;;;;5478633;26;19998;-68
2024/04/17 11:39:37;;;;;;;0.20;0.20;;;14.50;67.90;;;;;;5476299;26;20005;-68
2024/04/17 11:42:03;;;;;;;0.30;0.30;;;14.80;67.20;;;;;;5485785;26;19998;-69
2024/04/17 11:44:40;;;;;;;0.20;0.20;;;15.20;66.60;;;;;;5484703;26;19998;-68
2024/04/17 11:47:17;;;;;;;0.28;0.28;;;15.40;65.70;;;;;;5469483;26;20002;-68
2024/04/17 11:49:43;;;;;;;0.43;0.30;;;15.60;65.30;;;;;;5473614;26;19998;-68
2024/04/17 11:52:10;;;;;;;1.75;0.20;;;15.90;63.90;;;;;;5483153;26;20450;-68
2024/04/17 11:54:36;;;;;;;0.80;0.32;;;16.00;63.40;;;;;;5482351;26;20002;-71
2024/04/17 11:57:02;;;;;;;0.10;0.10;;;16.00;60.50;;;;;;5484622;26;20480;-70
2024/04/17 11:59:28;;;;;;;0.32;0.32;;;15.80;60.40;;;;;;5479116;26;20007;-70
2024/04/17 12:01:54;;;;;;;0.13;0.13;;;15.60;61.10;;;;;;5472602;26;20862;-70
2024/04/17 12:04:20;;;;;;;0.70;0.20;;;15.70;60.30;;;;;;5468721;26;20421;-70
2024/04/17 12:06:51;;;;;;;0.52;0.52;;;15.50;59.50;;;;;;5483883;26;20337;-71
2024/04/17 12:09:16;;;;;;;0.30;0.30;;;15.30;58.50;;;;;;5477162;26;19998;-72
2024/04/17 12:11:42;;;;;;;0.35;0.35;;;15.10;58.30;;;;;;5479245;26;20013;-71
2024/04/17 12:14:08;;;;;;;0.30;0.20;;;14.80;58.80;;;;;;5468794;26;20006;-70
2024/04/17 12:16:33;;;;;;;0.20;0.20;;;14.60;59.30;;;;;;5477075;26;20036;-69
2024/04/17 12:18:59;;;;;;;0.38;0.32;;;14.20;59.50;;;;;;5445639;26;20013;-70
2024/04/17 12:21:24;;;;;;;3.55;0.47;;;13.80;59.30;;;;;;5478806;26;20009;-71
2024/04/17 12:23:51;;;;;;;0.30;0.30;;;13.10;60.00;;;;;;5477043;26;19998;-71
2024/04/17 12:29:02;;;;;;;0.28;0.20;;;11.80;63.20;;;;;;5471032;26;20021;-68
2024/04/17 12:31:28;;;;;;;0.43;0.20;;;11.20;64.80;;;;;;5452311;26;20002;-68
2024/04/17 12:33:53;;;;;;;0.28;0.22;;;10.90;65.90;;;;;;5475621;26;20078;-68
2024/04/17 12:36:19;;;;;;;0.20;0.20;;;10.60;66.80;;;;;;5444729;26;19999;-68
2024/04/17 12:38:45;;;;;;;0.10;0.10;;;10.40;67.50;;;;;;5475349;26;20487;-68
2024/04/17 12:41:10;;;;;;;0.50;0.35;;;10.20;68.00;;;;;;5463708;26;20015;-68
2024/04/17 12:43:36;;;;;;;0.68;0.40;;;10.10;68.60;;;;;;5474251;26;19998;-68
2024/04/17 12:46:06;;;;;;;0.10;0.10;;;9.90;69.00;;;;;;5433564;26;19998;-68
2024/04/17 12:48:32;;;;;;;0.38;0.30;;;9.70;69.50;;;;;;5475936;26;20006;-68
2024/04/17 12:50:58;;;;;;;1.77;0.30;;;9.50;69.90;;;;;;5480325;26;20013;-68